Time;durP1;ratioP1;P1;durP2;ratioP2;P2;SDS_P1;SDS_P2;PMS_P1;PMS_P2;Temp;Humidity;BMP_temperature;BMP_pressure;BME280_temperature;BME280_humidity;BME280_pressure;Samples;Min_cycle;Max_cycle;Signal;HPM_P1;HPM_P2
2022/03/15 00:01:49;;;;;;;1.50;1.30;;;6.30;98.00;;;;;;6120664;23;20423;-72
2022/03/15 00:04:16;;;;;;;1.77;1.50;;;6.30;98.00;;;;;;6120751;23;20403;-71
2022/03/15 00:06:43;;;;;;;1.83;1.70;;;6.60;98.00;;;;;;6120251;23;20541;-71
2022/03/15 00:09:10;;;;;;;2.73;1.90;;;6.70;98.00;;;;;;6094848;23;20423;-71
2022/03/15 00:11:40;;;;;;;1.73;1.20;;;6.30;98.00;;;;;;6121078;23;20427;-70
2022/03/15 00:14:08;;;;;;;1.70;1.60;;;6.20;98.00;;;;;;6120726;23;20890;-71
2022/03/15 00:16:35;;;;;;;1.40;1.20;;;6.20;98.00;;;;;;6120615;23;20822;-70
2022/03/15 00:19:04;;;;;;;2.90;2.13;;;6.30;98.00;;;;;;6120312;23;20415;-70
2022/03/15 00:21:32;;;;;;;1.30;1.20;;;6.30;98.00;;;;;;6119659;23;20919;-70
2022/03/15 00:23:59;;;;;;;1.33;1.27;;;6.30;98.00;;;;;;6120420;23;20874;-70
2022/03/15 00:26:28;;;;;;;1.73;1.57;;;6.30;98.00;;;;;;6120276;23;20418;-71
2022/03/15 00:28:55;;;;;;;3.03;2.23;;;6.10;98.00;;;;;;6121108;23;20475;-71
2022/03/15 00:31:22;;;;;;;1.50;1.10;;;6.20;98.00;;;;;;6120904;23;20662;-71
2022/03/15 00:33:50;;;;;;;1.47;1.20;;;6.50;98.00;;;;;;6121168;23;20478;-70
2022/03/15 00:36:18;;;;;;;1.47;1.40;;;6.70;98.00;;;;;;6121022;23;20440;-70
2022/03/15 00:38:45;;;;;;;1.87;1.40;;;6.80;98.00;;;;;;6120301;23;20961;-70
2022/03/15 00:41:12;;;;;;;1.90;1.67;;;6.60;98.00;;;;;;6122490;23;20453;-70
2022/03/15 00:43:39;;;;;;;1.63;1.53;;;6.20;98.00;;;;;;6120617;23;20459;-70
2022/03/15 00:46:06;;;;;;;5.67;1.37;;;6.00;98.00;;;;;;6120225;23;20739;-71
2022/03/15 00:48:33;;;;;;;2.67;1.60;;;5.90;98.00;;;;;;6120614;23;20432;-71
2022/03/15 00:51:00;;;;;;;1.70;1.63;;;6.00;98.00;;;;;;6120368;23;20422;-71
2022/03/15 00:53:28;;;;;;;1.90;1.70;;;5.90;98.00;;;;;;6120196;23;20983;-70
2022/03/15 00:55:55;;;;;;;1.20;1.20;;;5.70;98.00;;;;;;6120151;23;20422;-71
2022/03/15 00:58:22;;;;;;;1.60;1.57;;;5.60;98.00;;;;;;6120290;23;20952;-70
2022/03/15 01:00:50;;;;;;;1.37;1.33;;;5.60;98.00;;;;;;6120121;23;20926;-71
2022/03/15 01:03:17;;;;;;;2.30;1.90;;;5.80;98.00;;;;;;6120525;23;20425;-70
2022/03/15 01:05:44;;;;;;;1.40;1.40;;;5.90;98.00;;;;;;6120322;23;20419;-70
2022/03/15 01:08:11;;;;;;;2.37;1.50;;;5.70;98.00;;;;;;6120814;23;20429;-70
2022/03/15 01:10:43;;;;;;;2.70;2.10;;;5.70;98.00;;;;;;6094816;23;20479;-71
2022/03/15 01:13:10;;;;;;;1.50;1.37;;;5.90;98.00;;;;;;6120246;23;20400;-71
2022/03/15 01:15:43;;;;;;;1.90;1.50;;;6.00;98.00;;;;;;6120772;23;20402;-70
2022/03/15 01:18:10;;;;;;;1.53;1.43;;;6.00;98.00;;;;;;6121329;23;21081;-71
2022/03/15 01:20:40;;;;;;;3.57;1.43;;;6.10;98.00;;;;;;6121095;23;20443;-70
2022/03/15 01:23:07;;;;;;;1.20;1.10;;;6.20;98.00;;;;;;6121746;23;20487;-70
2022/03/15 01:25:34;;;;;;;2.23;1.77;;;6.30;98.00;;;;;;6120359;23;20413;-71
2022/03/15 01:28:02;;;;;;;1.47;1.43;;;6.30;98.00;;;;;;6120289;23;20462;-71
2022/03/15 01:30:30;;;;;;;2.17;2.03;;;6.50;98.00;;;;;;6120185;23;20439;-70
2022/03/15 01:32:57;;;;;;;2.03;1.53;;;6.70;98.00;;;;;;6120020;23;20414;-70
2022/03/15 01:35:25;;;;;;;1.37;1.37;;;6.70;98.00;;;;;;6120424;23;20703;-70
2022/03/15 01:37:52;;;;;;;1.40;1.40;;;6.50;98.00;;;;;;6120316;23;20479;-70
2022/03/15 01:40:21;;;;;;;2.23;1.73;;;6.30;98.00;;;;;;6120208;23;20882;-70
2022/03/15 01:42:48;;;;;;;2.20;1.47;;;6.40;98.00;;;;;;6120076;23;20417;-70
2022/03/15 01:45:16;;;;;;;2.23;1.63;;;6.40;98.00;;;;;;6120250;23;20426;-70
2022/03/15 01:47:44;;;;;;;1.70;1.63;;;6.30;98.00;;;;;;6120081;23;20427;-70
2022/03/15 01:50:11;;;;;;;1.57;1.50;;;6.20;98.00;;;;;;6120341;23;20422;-70
2022/03/15 01:52:38;;;;;;;1.20;1.20;;;6.00;98.00;;;;;;6120267;23;20469;-70
2022/03/15 01:55:06;;;;;;;1.40;1.30;;;5.90;98.00;;;;;;6120289;23;20483;-70
2022/03/15 01:57:34;;;;;;;2.10;1.97;;;5.80;98.00;;;;;;6120526;23;20748;-70
2022/03/15 02:00:00;;;;;;;1.90;1.50;;;5.70;98.00;;;;;;6120144;23;20416;-70
2022/03/15 02:02:29;;;;;;;1.87;1.30;;;5.50;98.00;;;;;;6119940;23;20414;-70
2022/03/15 02:04:56;;;;;;;3.87;1.67;;;5.70;98.00;;;;;;6120107;23;20506;-70
2022/03/15 02:07:23;;;;;;;2.07;1.60;;;5.90;98.00;;;;;;6129593;23;20445;-70
2022/03/15 02:09:51;;;;;;;1.37;1.37;;;5.90;98.00;;;;;;6120259;23;20896;-70
2022/03/15 02:12:18;;;;;;;1.27;1.27;;;5.70;98.00;;;;;;6120304;23;20421;-70
2022/03/15 02:14:45;;;;;;;2.07;1.20;;;5.50;98.00;;;;;;6120416;23;20447;-70
2022/03/15 02:17:12;;;;;;;2.07;1.67;;;5.50;98.00;;;;;;6120215;23;20415;-70
2022/03/15 02:19:42;;;;;;;1.20;1.07;;;5.50;98.00;;;;;;6119799;23;20403;-70
2022/03/15 02:22:10;;;;;;;1.37;1.33;;;5.70;98.00;;;;;;6120192;23;20445;-70
2022/03/15 02:24:39;;;;;;;1.20;1.10;;;5.90;98.00;;;;;;6119702;23;20892;-70
2022/03/15 02:27:06;;;;;;;1.53;1.50;;;6.00;98.00;;;;;;6120215;23;20399;-70
2022/03/15 02:29:33;;;;;;;1.40;1.33;;;5.90;98.00;;;;;;6119487;23;20417;-70
2022/03/15 02:32:00;;;;;;;1.30;1.23;;;5.70;98.00;;;;;;6119747;23;20404;-70
2022/03/15 02:34:27;;;;;;;2.70;2.40;;;5.60;98.00;;;;;;6119930;23;20403;-70
2022/03/15 02:36:56;;;;;;;1.50;1.40;;;5.70;98.00;;;;;;6094386;23;20429;-70
2022/03/15 02:39:25;;;;;;;1.50;1.33;;;;;;;;;;6093883;23;21035;-70
2022/03/15 02:41:52;;;;;;;1.43;1.40;;;5.80;98.00;;;;;;6119422;23;20402;-70
2022/03/15 02:44:19;;;;;;;1.20;1.00;;;5.80;98.00;;;;;;6119492;23;20414;-70
2022/03/15 02:46:49;;;;;;;1.73;1.30;;;5.70;98.00;;;;;;6119437;23;20503;-70
2022/03/15 02:49:16;;;;;;;1.40;1.20;;;5.50;98.00;;;;;;6119705;23;20404;-70
2022/03/15 02:51:43;;;;;;;1.40;1.33;;;5.30;98.00;;;;;;6119380;23;20418;-70
2022/03/15 02:54:11;;;;;;;5.10;1.70;;;5.30;98.00;;;;;;6119540;23;20453;-70
2022/03/15 02:56:43;;;;;;;1.40;1.20;;;5.40;98.00;;;;;;6119344;23;20536;-70
2022/03/15 02:59:14;;;;;;;1.80;1.63;;;5.30;98.00;;;;;;6119828;23;20430;-70
2022/03/15 03:01:41;;;;;;;1.40;1.20;;;5.30;98.00;;;;;;6119489;23;20408;-70
2022/03/15 03:04:08;;;;;;;1.40;1.33;;;5.40;98.00;;;;;;6119713;23;20732;-70
2022/03/15 03:06:35;;;;;;;1.60;1.50;;;5.60;98.00;;;;;;6119490;23;20413;-70
2022/03/15 03:09:02;;;;;;;1.20;1.20;;;5.90;98.00;;;;;;6119516;23;20601;-70
2022/03/15 03:11:29;;;;;;;1.80;1.33;;;5.90;98.00;;;;;;6119722;23;20403;-70
2022/03/15 03:13:58;;;;;;;2.80;2.30;;;6.00;98.00;;;;;;6119882;23;20701;-70
2022/03/15 03:16:26;;;;;;;1.30;1.30;;;5.80;98.00;;;;;;6118984;23;20418;-70
2022/03/15 03:18:58;;;;;;;3.63;1.83;;;5.60;98.00;;;;;;6119653;23;20439;-70
2022/03/15 03:21:26;;;;;;;2.13;1.77;;;5.60;98.00;;;;;;6119206;23;20401;-70
2022/03/15 03:23:53;;;;;;;2.07;1.50;;;5.50;98.00;;;;;;6119196;23;20506;-70
2022/03/15 03:26:21;;;;;;;1.20;1.03;;;5.40;98.00;;;;;;6119556;23;20403;-70
2022/03/15 03:28:49;;;;;;;1.33;1.27;;;5.50;98.00;;;;;;6119474;23;20426;-70
2022/03/15 03:31:17;;;;;;;1.70;1.60;;;5.30;98.00;;;;;;6118998;23;20415;-70
2022/03/15 03:33:45;;;;;;;1.60;1.30;;;5.20;98.00;;;;;;6094059;23;20401;-71
2022/03/15 03:36:12;;;;;;;1.70;1.53;;;5.30;98.00;;;;;;6119359;23;20773;-70
2022/03/15 03:38:42;;;;;;;1.77;1.33;;;5.20;98.00;;;;;;6118999;23;20492;-70
2022/03/15 03:41:09;;;;;;;1.77;1.27;;;5.20;98.00;;;;;;6118960;23;20875;-70
2022/03/15 03:43:36;;;;;;;1.40;1.30;;;5.30;98.00;;;;;;6119352;23;20633;-70
2022/03/15 03:46:03;;;;;;;1.53;1.53;;;5.40;98.00;;;;;;6118878;23;20470;-70
2022/03/15 03:48:32;;;;;;;1.50;1.10;;;5.30;98.00;;;;;;6119403;23;20404;-70
2022/03/15 03:51:00;;;;;;;2.03;1.83;;;5.30;98.00;;;;;;6119662;23;20406;-70
2022/03/15 03:53:27;;;;;;;1.20;1.00;;;5.30;98.00;;;;;;6119770;23;20426;-70
2022/03/15 03:55:54;;;;;;;1.40;1.23;;;5.30;98.00;;;;;;6094999;23;20926;-70
2022/03/15 03:58:22;;;;;;;1.20;1.10;;;5.40;98.00;;;;;;6120815;23;20452;-70
2022/03/15 04:00:49;;;;;;;1.30;1.30;;;5.40;98.00;;;;;;6120922;23;20420;-70
2022/03/15 04:03:17;;;;;;;1.40;1.30;;;5.40;98.00;;;;;;6120363;23;20421;-70
2022/03/15 04:05:47;;;;;;;1.40;1.40;;;5.40;98.00;;;;;;6120748;23;20414;-70
2022/03/15 04:08:14;;;;;;;1.50;1.20;;;5.50;98.00;;;;;;6120737;23;20737;-70
2022/03/15 04:10:41;;;;;;;1.40;1.30;;;5.50;98.00;;;;;;6120299;23;20501;-70
2022/03/15 04:13:08;;;;;;;1.20;1.00;;;5.70;98.00;;;;;;6120639;23;20414;-70
2022/03/15 04:15:36;;;;;;;1.40;1.10;;;5.70;98.00;;;;;;6120255;23;20406;-70
2022/03/15 04:18:03;;;;;;;1.57;1.57;;;5.70;98.00;;;;;;6120982;23;20526;-70
2022/03/15 04:20:31;;;;;;;1.50;1.40;;;5.70;98.00;;;;;;6120271;23;20921;-70
2022/03/15 04:23:00;;;;;;;2.27;1.50;;;5.60;98.00;;;;;;6120240;23;20468;-70
2022/03/15 04:25:27;;;;;;;1.40;1.40;;;5.70;98.00;;;;;;6120599;23;20423;-70
2022/03/15 04:27:56;;;;;;;1.30;1.20;;;5.80;98.00;;;;;;6120174;23;20431;-70
2022/03/15 04:30:26;;;;;;;2.40;2.00;;;5.90;98.00;;;;;;6120158;23;20403;-70
2022/03/15 04:32:53;;;;;;;1.20;1.00;;;5.90;98.00;;;;;;6120235;23;20410;-70
2022/03/15 04:35:20;;;;;;;1.87;1.50;;;5.90;98.00;;;;;;6120467;23;20416;-70
2022/03/15 04:37:47;;;;;;;1.40;1.17;;;5.90;98.00;;;;;;6120539;23;20421;-70
2022/03/15 04:40:16;;;;;;;1.40;1.40;;;5.90;98.00;;;;;;6120150;23;20418;-70
2022/03/15 04:42:43;;;;;;;1.50;1.40;;;6.00;98.00;;;;;;6120471;23;20406;-70
2022/03/15 04:45:10;;;;;;;1.20;1.10;;;5.80;98.00;;;;;;6120219;23;20875;-70
2022/03/15 04:47:37;;;;;;;1.47;1.20;;;5.70;98.00;;;;;;6120687;23;20518;-70
2022/03/15 04:50:05;;;;;;;1.43;1.37;;;5.80;98.00;;;;;;6120852;23;20746;-70
2022/03/15 04:52:35;;;;;;;1.33;1.07;;;5.80;98.00;;;;;;6120781;23;20637;-70
2022/03/15 04:55:03;;;;;;;1.33;1.27;;;5.80;98.00;;;;;;6120626;23;20417;-70
2022/03/15 04:57:32;;;;;;;1.20;1.10;;;5.80;98.00;;;;;;6120278;23;20405;-70
2022/03/15 04:59:59;;;;;;;1.90;1.30;;;5.80;98.00;;;;;;6094948;23;20450;-70
2022/03/15 05:02:26;;;;;;;1.60;1.43;;;5.80;98.00;;;;;;6120403;23;20418;-70
2022/03/15 05:04:53;;;;;;;1.67;1.50;;;5.50;98.00;;;;;;6120472;23;20417;-70
2022/03/15 05:07:20;;;;;;;1.33;1.20;;;5.40;98.00;;;;;;6120238;23;20818;-70
2022/03/15 05:12:33;;;;;;;1.53;1.40;;;5.30;98.00;;;;;;6120225;23;20476;-70
2022/03/15 05:14:59;;;;;;;1.40;1.27;;;5.40;98.00;;;;;;6120426;23;20505;-70
2022/03/15 05:17:26;;;;;;;2.33;1.83;;;5.50;98.00;;;;;;6120320;23;20478;-70
2022/03/15 05:19:54;;;;;;;1.93;1.30;;;5.60;98.00;;;;;;6120014;23;20478;-70
2022/03/15 05:22:21;;;;;;;4.40;2.17;;;5.70;98.00;;;;;;6120314;23;20394;-70
2022/03/15 05:24:48;;;;;;;1.50;1.40;;;5.60;98.00;;;;;;6120316;23;20588;-70
2022/03/15 05:27:16;;;;;;;2.83;1.20;;;5.60;98.00;;;;;;6120358;23;20497;-70
2022/03/15 05:29:44;;;;;;;1.40;1.23;;;5.40;98.00;;;;;;6120330;23;20439;-70
2022/03/15 05:32:11;;;;;;;1.80;1.57;;;5.40;98.00;;;;;;6120407;23;20429;-70
2022/03/15 05:34:38;;;;;;;1.87;1.73;;;5.30;98.00;;;;;;6119949;23;20432;-70
2022/03/15 05:37:08;;;;;;;1.83;1.53;;;5.50;98.00;;;;;;6120141;23;20430;-70
2022/03/15 05:39:35;;;;;;;1.20;1.10;;;5.40;98.00;;;;;;6120497;23;20446;-70
2022/03/15 05:42:02;;;;;;;2.07;1.57;;;5.30;98.00;;;;;;6120522;23;20405;-70
2022/03/15 05:44:30;;;;;;;1.93;1.80;;;5.40;98.00;;;;;;6094759;23;20464;-70
2022/03/15 05:46:58;;;;;;;1.40;1.20;;;5.50;98.00;;;;;;6119972;23;20913;-70
2022/03/15 05:49:25;;;;;;;1.30;1.30;;;5.40;98.00;;;;;;6120314;23;20756;-70
2022/03/15 05:51:52;;;;;;;1.70;1.27;;;5.30;98.00;;;;;;6120356;23;20472;-70
2022/03/15 05:54:19;;;;;;;2.07;1.93;;;5.10;98.00;;;;;;6120170;23;20927;-70
2022/03/15 05:56:48;;;;;;;1.30;1.27;;;5.10;98.00;;;;;;6119861;23;20421;-70
2022/03/15 05:59:15;;;;;;;2.23;1.73;;;5.10;98.00;;;;;;6120154;23;20533;-70
2022/03/15 06:01:42;;;;;;;1.63;1.57;;;5.10;98.00;;;;;;6120311;23;21261;-70
2022/03/15 06:04:11;;;;;;;1.80;1.50;;;5.20;98.00;;;;;;6120234;23;20442;-70
2022/03/15 06:06:38;;;;;;;1.73;1.53;;;5.20;98.00;;;;;;6120254;23;20416;-70
2022/03/15 06:09:06;;;;;;;1.40;1.20;;;5.20;98.00;;;;;;6094933;23;20912;-70
2022/03/15 06:11:35;;;;;;;1.50;1.50;;;5.20;98.00;;;;;;6119824;23;20420;-70
2022/03/15 06:14:02;;;;;;;1.30;1.20;;;5.60;98.00;;;;;;6120278;23;20415;-70
2022/03/15 06:16:29;;;;;;;1.80;1.80;;;5.70;98.00;;;;;;6120186;23;20422;-70
2022/03/15 06:18:56;;;;;;;1.40;1.20;;;5.70;98.00;;;;;;6119399;23;20806;-70
2022/03/15 06:21:25;;;;;;;1.70;1.50;;;5.90;98.00;;;;;;6120090;23;20421;-70
2022/03/15 06:23:52;;;;;;;2.77;2.20;;;5.80;98.00;;;;;;6120052;23;20425;-70
2022/03/15 06:26:20;;;;;;;1.20;1.20;;;6.00;98.00;;;;;;6119876;23;20421;-70
2022/03/15 06:28:47;;;;;;;1.40;1.40;;;6.00;98.00;;;;;;6120304;23;20403;-70
2022/03/15 06:31:14;;;;;;;2.80;1.43;;;6.00;98.00;;;;;;6120669;23;20445;-70
2022/03/15 06:33:42;;;;;;;1.30;1.30;;;5.90;98.00;;;;;;6094546;23;20929;-70
2022/03/15 06:36:11;;;;;;;4.70;1.67;;;5.80;98.00;;;;;;6120542;23;20425;-70
2022/03/15 06:38:41;;;;;;;2.10;1.53;;;5.80;98.00;;;;;;6120452;23;20465;-70
2022/03/15 06:41:10;;;;;;;1.30;1.27;;;6.00;98.00;;;;;;6120617;23;20900;-70
2022/03/15 06:43:39;;;;;;;4.57;1.73;;;6.10;98.00;;;;;;6120066;23;20787;-69
2022/03/15 06:46:06;;;;;;;1.40;1.37;;;6.40;98.00;;;;;;6119877;23;20458;-70
2022/03/15 06:48:33;;;;;;;1.30;1.27;;;6.50;98.00;;;;;;6119750;23;20406;-70
2022/03/15 06:51:02;;;;;;;1.20;0.90;;;6.50;98.00;;;;;;6119905;23;20418;-70
2022/03/15 06:53:29;;;;;;;1.83;1.70;;;6.50;98.00;;;;;;6120011;23;20395;-70
2022/03/15 06:55:59;;;;;;;2.40;1.67;;;6.60;98.00;;;;;;6119872;23;20463;-70
2022/03/15 06:58:26;;;;;;;4.03;2.10;;;6.60;98.00;;;;;;6094361;23;20401;-70
2022/03/15 07:00:55;;;;;;;2.63;2.03;;;6.60;98.00;;;;;;6119513;23;20455;-70
2022/03/15 07:03:22;;;;;;;2.90;1.87;;;6.60;98.00;;;;;;6119512;23;20872;-70
2022/03/15 07:05:49;;;;;;;1.63;1.60;;;6.60;98.00;;;;;;6119786;23;20476;-70
2022/03/15 07:08:16;;;;;;;1.87;1.70;;;6.40;98.00;;;;;;6119391;23;20421;-69
2022/03/15 07:10:43;;;;;;;1.37;1.20;;;6.50;98.00;;;;;;6119621;23;20425;-69
2022/03/15 07:13:13;;;;;;;3.10;1.73;;;6.60;98.00;;;;;;6119713;23;20413;-69
2022/03/15 07:15:40;;;;;;;4.03;1.93;;;6.80;98.00;;;;;;6119573;23;20426;-69
2022/03/15 07:18:07;;;;;;;1.40;1.20;;;6.90;98.00;;;;;;6119542;23;20419;-69
2022/03/15 07:20:34;;;;;;;2.00;1.40;;;7.00;98.00;;;;;;6119294;23;20928;-69
2022/03/15 07:23:02;;;;;;;3.60;1.63;;;7.10;98.00;;;;;;6119567;23;20423;-69
2022/03/15 07:25:29;;;;;;;3.03;1.73;;;7.10;98.00;;;;;;6093098;23;20419;-69
2022/03/15 07:27:57;;;;;;;2.90;2.17;;;7.10;98.00;;;;;;6119254;23;20922;-68
2022/03/15 07:30:25;;;;;;;1.30;1.23;;;7.20;98.00;;;;;;6120271;23;20416;-69
2022/03/15 07:32:52;;;;;;;1.73;1.30;;;7.40;98.00;;;;;;6121044;23;20793;-69
2022/03/15 07:35:19;;;;;;;1.77;1.70;;;7.20;98.00;;;;;;6120864;23;20454;-69
2022/03/15 07:37:51;;;;;;;3.17;1.43;;;7.30;98.00;;;;;;6120214;23;20454;-69
2022/03/15 07:40:19;;;;;;;2.33;1.30;;;7.30;98.00;;;;;;6119739;23;20929;-69
2022/03/15 07:42:48;;;;;;;3.33;1.83;;;7.30;98.00;;;;;;6120812;23;20427;-68
2022/03/15 07:45:17;;;;;;;3.70;2.47;;;7.30;98.00;;;;;;6120347;23;20865;-69
2022/03/15 07:47:47;;;;;;;1.30;1.20;;;7.50;98.00;;;;;;6120199;23;20435;-70
2022/03/15 07:50:15;;;;;;;1.43;1.33;;;7.50;98.00;;;;;;6120742;23;20409;-68
2022/03/15 07:52:42;;;;;;;1.47;1.20;;;7.60;98.00;;;;;;6120798;23;20788;-69
2022/03/15 07:55:11;;;;;;;4.77;1.50;;;7.80;98.00;;;;;;6120858;23;20421;-69
2022/03/15 07:57:38;;;;;;;3.27;2.13;;;8.00;98.00;;;;;;6120834;23;20762;-70
2022/03/15 08:00:09;;;;;;;1.40;1.17;;;8.10;98.00;;;;;;6120679;23;20431;-69
2022/03/15 08:02:36;;;;;;;1.83;1.53;;;8.10;98.00;;;;;;6118925;23;20440;-69
2022/03/15 08:05:06;;;;;;;5.43;2.60;;;8.10;98.00;;;;;;6120217;23;20420;-69
2022/03/15 08:07:35;;;;;;;1.50;1.40;;;7.80;98.00;;;;;;6120614;23;20403;-69
2022/03/15 08:10:02;;;;;;;1.20;1.10;;;7.80;98.00;;;;;;6120677;23;20425;-69
2022/03/15 08:12:29;;;;;;;2.03;1.93;;;7.70;98.00;;;;;;6120960;23;20404;-69
2022/03/15 08:14:56;;;;;;;2.57;1.67;;;7.60;98.00;;;;;;6121157;23;20447;-69
2022/03/15 08:17:23;;;;;;;2.73;1.53;;;7.60;98.00;;;;;;6119462;23;20474;-69
2022/03/15 08:19:50;;;;;;;1.47;1.20;;;7.60;98.00;;;;;;6119028;23;20471;-70
2022/03/15 08:22:18;;;;;;;2.07;1.50;;;7.80;98.00;;;;;;6119923;23;20409;-69
2022/03/15 08:24:45;;;;;;;1.37;1.33;;;8.10;98.00;;;;;;6119610;23;20445;-70
2022/03/15 08:27:12;;;;;;;1.77;1.73;;;8.40;98.00;;;;;;6118972;23;20578;-71
2022/03/15 08:29:40;;;;;;;5.63;1.57;;;8.50;98.00;;;;;;6119584;23;20443;-68
2022/03/15 08:32:08;;;;;;;1.50;1.37;;;8.50;98.00;;;;;;6093923;23;20425;-69
2022/03/15 08:34:35;;;;;;;1.70;1.37;;;8.70;98.00;;;;;;6119741;23;20424;-69
2022/03/15 08:37:02;;;;;;;1.40;1.20;;;8.90;98.00;;;;;;6119004;23;20420;-69
2022/03/15 08:39:34;;;;;;;5.50;2.53;;;9.00;98.00;;;;;;6119477;23;20437;-70
2022/03/15 08:42:01;;;;;;;2.20;1.50;;;9.30;98.00;;;;;;6092985;23;20425;-70
2022/03/15 08:44:28;;;;;;;2.40;1.40;;;9.40;98.00;;;;;;6119338;23;20415;-70
2022/03/15 08:46:55;;;;;;;1.70;1.60;;;9.50;98.00;;;;;;6119135;23;20444;-70
2022/03/15 08:49:23;;;;;;;1.77;1.40;;;9.50;98.00;;;;;;6118761;23;20859;-70
2022/03/15 08:51:50;;;;;;;1.87;1.30;;;9.60;98.00;;;;;;6119354;23;20412;-70
2022/03/15 08:54:18;;;;;;;2.83;1.67;;;9.60;98.00;;;;;;6119553;23;20420;-70
2022/03/15 08:56:46;;;;;;;2.90;1.93;;;9.80;98.00;;;;;;6119424;23;20468;-70
2022/03/15 08:59:15;;;;;;;2.17;1.70;;;9.90;98.00;;;;;;6119617;23;20405;-70
2022/03/15 09:01:42;;;;;;;1.70;1.60;;;10.00;98.00;;;;;;6119735;23;20607;-70
2022/03/15 09:04:10;;;;;;;2.30;1.33;;;10.10;98.00;;;;;;6119498;23;20404;-70
2022/03/15 09:06:37;;;;;;;1.83;1.73;;;10.20;98.00;;;;;;6119625;23;20410;-70
2022/03/15 09:09:04;;;;;;;1.50;1.20;;;10.20;98.00;;;;;;6119408;23;20417;-70
2022/03/15 09:11:33;;;;;;;3.20;2.00;;;10.20;98.00;;;;;;6119384;23;20394;-70
2022/03/15 09:14:01;;;;;;;1.77;1.60;;;10.20;98.00;;;;;;6119689;23;20461;-70
2022/03/15 09:16:30;;;;;;;1.80;1.40;;;10.30;98.00;;;;;;6118324;23;20435;-70
2022/03/15 09:18:59;;;;;;;1.27;1.23;;;10.50;98.00;;;;;;6118919;23;20397;-70
2022/03/15 09:21:28;;;;;;;1.50;1.20;;;10.40;98.00;;;;;;6119215;23;21070;-70
2022/03/15 09:23:57;;;;;;;1.73;1.50;;;10.40;98.00;;;;;;6119305;23;20404;-70
2022/03/15 09:26:27;;;;;;;2.30;1.67;;;10.60;98.00;;;;;;6119291;23;20559;-70
2022/03/15 09:28:54;;;;;;;1.67;1.27;;;10.70;98.00;;;;;;6117470;23;20435;-70
2022/03/15 09:31:23;;;;;;;1.60;1.40;;;10.70;98.00;;;;;;6118914;23;20794;-70
2022/03/15 09:33:50;;;;;;;1.70;1.20;;;10.80;98.00;;;;;;6118031;23;20421;-70
2022/03/15 09:36:17;;;;;;;1.93;1.47;;;10.90;98.00;;;;;;6117830;23;20418;-70
2022/03/15 09:38:53;;;;;;;1.70;1.47;;;11.00;98.00;;;;;;6119331;23;20458;-70
2022/03/15 09:41:20;;;;;;;1.70;1.40;;;11.10;98.00;;;;;;6118723;23;20433;-70
2022/03/15 09:43:49;;;;;;;2.27;1.60;;;11.20;98.00;;;;;;6119388;23;20401;-70
2022/03/15 09:46:18;;;;;;;1.97;1.63;;;11.20;98.00;;;;;;6118891;23;20762;-70
2022/03/15 09:48:51;;;;;;;4.13;1.70;;;11.40;98.00;;;;;;6119504;23;20405;-68
2022/03/15 09:51:19;;;;;;;1.20;1.10;;;11.50;98.00;;;;;;6094083;23;20421;-68
2022/03/15 09:53:47;;;;;;;1.40;1.33;;;11.50;98.00;;;;;;6120265;23;20398;-68
2022/03/15 09:56:16;;;;;;;1.50;1.30;;;11.60;98.00;;;;;;6119526;23;20460;-67
2022/03/15 09:58:43;;;;;;;1.70;1.57;;;11.60;98.00;;;;;;6119883;23;20459;-67
2022/03/15 10:01:14;;;;;;;1.90;1.80;;;11.60;98.00;;;;;;6119366;23;20455;-67
2022/03/15 10:03:41;;;;;;;2.00;1.37;;;11.70;98.00;;;;;;6120533;23;20416;-67
2022/03/15 10:06:10;;;;;;;1.20;1.20;;;11.70;98.00;;;;;;6120225;23;20421;-67
2022/03/15 10:08:38;;;;;;;1.80;1.20;;;11.60;98.00;;;;;;6120051;23;20466;-68
2022/03/15 10:11:05;;;;;;;4.60;2.40;;;11.60;98.00;;;;;;6119828;23;20407;-67
2022/03/15 10:13:33;;;;;;;1.40;1.33;;;11.60;98.00;;;;;;6120220;23;20452;-67
2022/03/15 10:16:03;;;;;;;1.40;1.30;;;11.70;98.00;;;;;;6120169;23;20419;-67
2022/03/15 10:18:30;;;;;;;1.67;1.40;;;11.70;98.00;;;;;;6119730;23;20420;-67
2022/03/15 10:20:58;;;;;;;1.97;1.60;;;11.80;98.00;;;;;;6119530;23;20446;-68
2022/03/15 10:23:30;;;;;;;1.63;1.30;;;11.70;98.00;;;;;;6119989;23;20408;-67
2022/03/15 10:25:58;;;;;;;1.20;1.00;;;11.70;98.00;;;;;;6119913;23;20403;-68
2022/03/15 10:28:26;;;;;;;1.20;1.20;;;11.60;98.00;;;;;;6094719;23;20743;-67
2022/03/15 10:30:54;;;;;;;1.30;1.27;;;11.60;98.00;;;;;;6120291;23;20420;-68
2022/03/15 10:33:21;;;;;;;1.30;1.30;;;11.50;98.00;;;;;;6120081;23;20506;-68
2022/03/15 10:35:49;;;;;;;1.70;1.43;;;11.50;98.00;;;;;;6119961;23;20422;-67
2022/03/15 10:38:17;;;;;;;1.60;1.47;;;12.00;98.00;;;;;;6119728;23;20427;-67
2022/03/15 10:40:48;;;;;;;2.23;2.03;;;12.10;98.00;;;;;;6119658;23;20476;-67
2022/03/15 10:43:17;;;;;;;1.30;1.10;;;12.30;98.00;;;;;;6119754;23;20411;-67
2022/03/15 10:45:47;;;;;;;2.40;1.80;;;12.60;98.00;;;;;;6119590;23;20956;-67
2022/03/15 10:48:17;;;;;;;1.20;1.10;;;13.00;98.00;;;;;;6119682;23;20430;-67
2022/03/15 10:50:55;;;;;;;2.37;1.60;;;13.30;97.80;;;;;;6119835;23;20406;-67
2022/03/15 10:53:25;;;;;;;1.40;1.23;;;13.50;96.00;;;;;;6119935;23;20397;-67
2022/03/15 10:56:09;;;;;;;3.33;1.90;;;13.30;94.70;;;;;;6119861;23;20473;-67
2022/03/15 10:58:45;;;;;;;1.70;1.33;;;12.90;95.70;;;;;;6119597;23;20434;-67
2022/03/15 11:01:13;;;;;;;1.60;1.47;;;12.50;96.30;;;;;;6119209;23;20467;-67
2022/03/15 11:03:40;;;;;;;1.60;1.40;;;12.40;97.00;;;;;;6119405;23;20938;-67
2022/03/15 11:06:08;;;;;;;1.40;1.20;;;12.10;98.00;;;;;;6120643;23;20418;-67
2022/03/15 11:08:36;;;;;;;2.23;1.87;;;12.10;98.00;;;;;;6120900;23;20410;-67
2022/03/15 11:11:06;;;;;;;2.43;1.60;;;12.10;98.00;;;;;;6120961;23;20398;-67
2022/03/15 11:13:33;;;;;;;2.57;1.83;;;12.10;98.00;;;;;;6121005;23;20410;-67
2022/03/15 11:16:00;;;;;;;5.07;2.10;;;11.80;98.00;;;;;;6120918;23;20530;-67
2022/03/15 11:18:30;;;;;;;2.07;1.77;;;11.60;98.00;;;;;;6120109;23;20729;-67
2022/03/15 11:20:59;;;;;;;1.37;1.30;;;11.70;98.00;;;;;;6120756;23;20500;-67
2022/03/15 11:23:29;;;;;;;1.40;1.33;;;11.70;98.00;;;;;;6130293;23;20421;-67
2022/03/15 11:25:58;;;;;;;1.50;1.30;;;11.80;98.00;;;;;;6120839;23;20431;-67
2022/03/15 11:28:30;;;;;;;1.90;1.50;;;11.70;98.00;;;;;;6120668;23;20422;-67
2022/03/15 11:30:58;;;;;;;1.77;1.67;;;11.60;98.00;;;;;;6095279;23;20459;-67
2022/03/15 11:33:28;;;;;;;1.90;1.80;;;11.40;98.00;;;;;;6120053;23;20434;-67
2022/03/15 11:35:55;;;;;;;3.07;2.33;;;11.30;98.00;;;;;;6120938;23;20755;-67
2022/03/15 11:38:22;;;;;;;2.07;1.43;;;11.10;98.00;;;;;;6120573;23;20897;-67
2022/03/15 11:40:54;;;;;;;1.40;1.27;;;11.20;98.00;;;;;;6120313;23;20429;-67
2022/03/15 11:43:33;;;;;;;1.60;1.30;;;11.10;98.00;;;;;;6121200;23;20412;-67
2022/03/15 11:46:03;;;;;;;2.53;1.50;;;11.10;98.00;;;;;;6120872;23;20449;-67
2022/03/15 11:48:41;;;;;;;2.80;2.03;;;11.00;98.00;;;;;;6095510;23;20716;-67
2022/03/15 11:51:14;;;;;;;1.50;1.43;;;10.90;98.00;;;;;;6121058;23;20466;-67
2022/03/15 11:53:50;;;;;;;2.33;1.40;;;10.90;98.00;;;;;;6121355;23;20402;-67
2022/03/15 11:56:27;;;;;;;2.13;1.60;;;10.80;98.00;;;;;;6122206;23;20468;-68
2022/03/15 11:58:58;;;;;;;1.20;1.10;;;10.80;98.00;;;;;;6121419;23;20408;-67
2022/03/15 12:01:25;;;;;;;1.30;1.20;;;10.70;98.00;;;;;;6121041;23;20491;-67
2022/03/15 12:03:54;;;;;;;2.53;1.77;;;10.80;98.00;;;;;;6121018;23;20792;-67
2022/03/15 12:06:32;;;;;;;3.83;1.67;;;10.90;98.00;;;;;;6119907;23;20405;-67
2022/03/15 12:09:03;;;;;;;2.53;1.37;;;11.10;98.00;;;;;;6120957;23;20448;-67
2022/03/15 12:11:34;;;;;;;3.23;1.60;;;11.00;98.00;;;;;;6120323;23;20411;-67
2022/03/15 12:14:11;;;;;;;1.40;1.33;;;11.00;98.00;;;;;;6120829;23;20406;-67
2022/03/15 12:16:41;;;;;;;2.03;1.60;;;11.20;98.00;;;;;;6120117;23;20425;-67
2022/03/15 12:19:35;;;;;;;1.50;1.27;;;11.20;98.00;;;;;;6120420;23;20407;-67
2022/03/15 12:22:06;;;;;;;2.13;1.63;;;11.30;98.00;;;;;;6120611;23;20490;-67
2022/03/15 12:24:35;;;;;;;1.70;1.50;;;11.10;98.00;;;;;;6120692;23;20409;-67
2022/03/15 12:27:05;;;;;;;2.67;1.80;;;11.20;98.00;;;;;;6095002;23;20456;-67
2022/03/15 12:29:34;;;;;;;1.57;1.50;;;11.20;98.00;;;;;;6117818;23;20421;-67
2022/03/15 12:32:12;;;;;;;2.13;1.53;;;11.10;98.00;;;;;;6120760;23;20400;-67
2022/03/15 12:34:42;;;;;;;2.90;1.63;;;10.90;98.00;;;;;;6121356;23;20415;-67
2022/03/15 12:37:09;;;;;;;1.67;1.50;;;11.00;98.00;;;;;;6120543;23;20409;-67
2022/03/15 12:39:37;;;;;;;1.93;1.60;;;11.00;98.00;;;;;;6120792;23;20445;-67
2022/03/15 12:42:07;;;;;;;3.17;2.03;;;10.90;98.00;;;;;;6120500;23;20443;-67
2022/03/15 12:44:48;;;;;;;2.87;1.53;;;10.90;98.00;;;;;;6120406;23;20484;-67
2022/03/15 12:47:18;;;;;;;3.97;1.83;;;10.90;98.00;;;;;;6120237;23;20951;-68
2022/03/15 12:50:07;;;;;;;1.80;1.70;;;11.10;98.00;;;;;;6120044;23;20881;-67
2022/03/15 12:52:39;;;;;;;1.50;1.23;;;11.10;98.00;;;;;;6120408;23;20421;-68
2022/03/15 12:55:07;;;;;;;1.80;1.70;;;11.20;98.00;;;;;;6120698;23;20427;-67
2022/03/15 12:57:33;;;;;;;1.60;1.40;;;11.40;98.00;;;;;;6120624;23;20417;-68
2022/03/15 13:00:04;;;;;;;1.43;1.30;;;11.40;98.00;;;;;;6120797;23;20739;-68
2022/03/15 13:02:33;;;;;;;1.97;1.70;;;11.30;98.00;;;;;;6120008;23;20449;-67
2022/03/15 13:05:11;;;;;;;1.90;1.70;;;11.20;98.00;;;;;;6119050;23;20505;-67